Time;durP1;ratioP1;P1;durP2;ratioP2;P2;SDS_P1;SDS_P2;PMS_P1;PMS_P2;Temp;Humidity;BMP_temperature;BMP_pressure;BME280_temperature;BME280_humidity;BME280_pressure;Samples;Min_cycle;Max_cycle;Signal;HPM_P1;HPM_P2
2022/05/17 00:00:27;;;;;;;41.78;17.05;;;13.30;99.90;;;;;;4992272;28;20723;-44
2022/05/17 00:02:53;;;;;;;37.50;15.95;;;13.10;99.90;;;;;;4992366;28;20078;-44
2022/05/17 00:05:19;;;;;;;37.08;15.40;;;13.20;99.90;;;;;;4992058;28;20042;-44
2022/05/17 00:07:44;;;;;;;37.38;15.88;;;13.00;99.90;;;;;;4992398;28;20658;-45
2022/05/17 00:10:11;;;;;;;32.05;15.13;;;12.90;99.90;;;;;;4992135;28;20538;-44
2022/05/17 00:12:37;;;;;;;52.53;16.15;;;12.90;99.90;;;;;;4990938;28;20057;-43
2022/05/17 00:15:05;;;;;;;41.08;17.08;;;12.80;99.90;;;;;;4992079;28;20085;-43
2022/05/17 00:17:31;;;;;;;43.65;16.15;;;12.80;99.90;;;;;;4991891;28;20046;-49
2022/05/17 00:19:57;;;;;;;46.22;16.02;;;12.70;99.90;;;;;;4991575;28;20749;-46
2022/05/17 00:22:22;;;;;;;34.67;14.65;;;13.00;99.90;;;;;;4991422;28;20042;-48
2022/05/17 00:24:48;;;;;;;33.38;15.20;;;12.60;99.90;;;;;;4991997;28;20046;-43
2022/05/17 00:27:14;;;;;;;42.95;15.23;;;12.60;99.90;;;;;;4991454;28;20422;-45
2022/05/17 00:29:40;;;;;;;41.83;15.20;;;12.60;99.90;;;;;;4991373;28;20046;-46
2022/05/17 00:32:06;;;;;;;38.67;14.27;;;12.50;99.90;;;;;;4991696;28;20046;-43
2022/05/17 00:34:32;;;;;;;33.17;12.80;;;12.60;99.90;;;;;;4991420;28;20789;-45
2022/05/17 00:36:58;;;;;;;33.10;11.90;;;12.70;99.90;;;;;;4991209;28;20069;-43
2022/05/17 00:39:24;;;;;;;36.28;13.30;;;12.60;99.90;;;;;;4991292;28;20069;-44
2022/05/17 00:41:49;;;;;;;33.53;14.10;;;12.60;99.90;;;;;;4991337;28;20622;-43
2022/05/17 00:47:18;;;;;;;44.80;14.75;;;12.60;99.90;;;;;;4991006;28;20061;-43
2022/05/17 00:49:43;;;;;;;36.83;13.80;;;12.50;99.90;;;;;;4991109;28;20038;-42
2022/05/17 00:52:17;;;;;;;31.55;12.68;;;12.40;99.90;;;;;;4991214;28;20512;-43
2022/05/17 00:54:44;;;;;;;29.42;11.82;;;12.80;99.90;;;;;;4991146;28;20085;-47
2022/05/17 00:57:41;;;;;;;37.00;14.13;;;12.40;99.90;;;;;;4990986;28;20042;-44
2022/05/17 01:00:13;;;;;;;48.53;15.18;;;12.40;99.90;;;;;;4991473;28;20042;-44
2022/05/17 01:02:45;;;;;;;33.25;13.80;;;12.40;99.90;;;;;;4991027;28;20378;-43
2022/05/17 01:05:11;;;;;;;42.95;14.68;;;13.10;99.90;;;;;;4991082;28;20042;-43
2022/05/17 01:07:47;;;;;;;37.45;13.27;;;12.50;99.90;;;;;;4990150;28;20046;-43
2022/05/17 01:10:13;;;;;;;32.58;12.95;;;12.50;99.90;;;;;;4990584;28;20478;-43
2022/05/17 01:12:40;;;;;;;35.22;12.95;;;13.00;99.90;;;;;;4990798;28;20121;-43
2022/05/17 01:15:11;;;;;;;39.78;13.75;;;12.50;99.90;;;;;;4991683;28;20464;-42
2022/05/17 01:17:40;;;;;;;47.97;13.63;;;12.50;99.90;;;;;;4991210;28;20050;-43
2022/05/17 01:20:12;;;;;;;40.30;14.20;;;12.40;99.90;;;;;;4991272;28;20511;-43
2022/05/17 01:22:38;;;;;;;40.33;13.48;;;12.40;99.90;;;;;;4990801;28;20857;-44
2022/05/17 01:25:04;;;;;;;48.42;15.60;;;12.40;99.90;;;;;;4991183;28;20050;-43
2022/05/17 01:27:59;;;;;;;36.80;15.60;;;12.40;99.90;;;;;;4989816;28;20498;-43
2022/05/17 01:30:27;;;;;;;33.83;13.38;;;12.40;99.90;;;;;;4985390;28;20057;-43
2022/05/17 01:32:53;;;;;;;42.42;12.77;;;12.80;99.90;;;;;;4990670;28;20054;-44
2022/05/17 01:35:19;;;;;;;33.28;13.10;;;12.20;99.90;;;;;;4990475;28;20052;-44
2022/05/17 01:37:48;;;;;;;38.58;12.75;;;12.20;99.90;;;;;;4989959;28;20064;-43
2022/05/17 01:40:14;;;;;;;31.92;12.75;;;12.50;99.90;;;;;;4990760;28;20124;-42
2022/05/17 01:42:40;;;;;;;33.55;12.52;;;12.30;99.90;;;;;;4990281;28;20085;-43
2022/05/17 01:45:06;;;;;;;36.70;13.65;;;12.30;99.90;;;;;;4990143;28;20221;-42
2022/05/17 01:47:32;;;;;;;46.83;14.10;;;12.00;99.90;;;;;;4990423;28;20043;-43
2022/05/17 01:49:57;;;;;;;58.72;16.85;;;12.50;99.90;;;;;;4990398;28;20164;-43
2022/05/17 01:52:23;;;;;;;46.20;14.95;;;12.00;99.90;;;;;;4990192;28;20073;-43
2022/05/17 01:54:49;;;;;;;52.05;14.52;;;12.50;99.90;;;;;;4988370;28;20065;-44
2022/05/17 01:57:15;;;;;;;59.53;15.93;;;12.30;99.90;;;;;;4989498;28;20108;-43
2022/05/17 01:59:40;;;;;;;41.10;13.77;;;11.90;99.90;;;;;;4990290;28;20046;-43
2022/05/17 02:02:06;;;;;;;39.83;13.82;;;12.10;99.90;;;;;;4990019;28;20061;-42
2022/05/17 02:04:32;;;;;;;50.17;16.05;;;11.90;99.90;;;;;;4989970;28;20070;-43
2022/05/17 02:06:57;;;;;;;59.10;16.80;;;12.10;99.90;;;;;;4990442;28;20048;-42
2022/05/17 02:09:23;;;;;;;58.15;16.25;;;11.90;99.90;;;;;;4990202;28;20100;-44
2022/05/17 02:11:49;;;;;;;38.28;14.77;;;12.00;99.90;;;;;;4990062;28;20042;-42
2022/05/17 02:14:14;;;;;;;37.15;14.40;;;12.10;99.90;;;;;;4990045;28;20081;-43
2022/05/17 02:16:41;;;;;;;39.00;15.57;;;11.80;99.90;;;;;;4987985;28;20053;-42
2022/05/17 02:19:07;;;;;;;47.97;15.55;;;12.10;99.90;;;;;;4989893;28;20125;-42
2022/05/17 02:21:35;;;;;;;50.88;17.05;;;11.80;99.90;;;;;;4989342;28;20461;-42
2022/05/17 02:24:01;;;;;;;39.65;16.00;;;12.20;99.90;;;;;;4990178;28;20096;-42
2022/05/17 02:26:27;;;;;;;39.38;15.27;;;11.80;99.90;;;;;;4990000;28;20113;-42
2022/05/17 02:28:53;;;;;;;42.13;15.77;;;12.20;99.90;;;;;;4989839;28;20034;-42
2022/05/17 02:31:19;;;;;;;34.28;14.80;;;12.10;99.90;;;;;;4989722;28;20723;-45
2022/05/17 02:33:46;;;;;;;40.88;16.48;;;12.30;99.90;;;;;;4988030;28;20053;-43
2022/05/17 02:36:12;;;;;;;47.92;17.15;;;11.90;99.90;;;;;;4988801;28;20101;-42
2022/05/17 02:38:38;;;;;;;51.22;17.02;;;11.90;99.90;;;;;;4988778;28;20053;-44
2022/05/17 02:41:03;;;;;;;36.47;15.40;;;11.80;99.90;;;;;;4987547;28;20157;-43
2022/05/17 02:43:30;;;;;;;44.70;17.45;;;11.90;99.90;;;;;;4989226;28;20050;-43
2022/05/17 02:45:55;;;;;;;55.35;18.05;;;12.10;99.90;;;;;;4988730;28;20058;-43
2022/05/17 02:48:22;;;;;;;62.20;20.25;;;12.00;99.90;;;;;;4989108;28;20046;-44
2022/05/17 02:50:47;;;;;;;47.67;17.77;;;11.60;99.90;;;;;;4989172;28;20486;-43
2022/05/17 02:53:13;;;;;;;60.00;18.20;;;12.10;99.90;;;;;;4988696;28;20053;-43
2022/05/17 02:55:39;;;;;;;42.28;16.92;;;12.00;99.90;;;;;;4987746;28;20054;-42
2022/05/17 02:58:05;;;;;;;39.53;16.05;;;11.90;99.90;;;;;;4987665;28;20084;-43
2022/05/17 03:00:32;;;;;;;44.40;18.33;;;11.50;99.90;;;;;;4989445;28;20047;-42
2022/05/17 03:02:58;;;;;;;34.20;15.40;;;11.50;99.90;;;;;;4989105;28;20065;-44
2022/05/17 03:05:24;;;;;;;37.42;17.63;;;12.00;99.90;;;;;;4988643;28;20042;-42
2022/05/17 03:07:50;;;;;;;42.67;17.40;;;11.60;99.90;;;;;;4988780;28;20077;-46
2022/05/17 03:10:17;;;;;;;40.17;16.80;;;11.80;99.90;;;;;;4989336;28;20050;-42
2022/05/17 03:12:44;;;;;;;52.72;19.30;;;12.00;99.90;;;;;;4988621;28;20046;-43
2022/05/17 03:15:12;;;;;;;37.17;17.15;;;12.00;99.90;;;;;;4988781;28;20082;-43
2022/05/17 03:17:37;;;;;;;44.05;18.10;;;11.60;99.90;;;;;;4989159;28;20052;-43
2022/05/17 03:20:04;;;;;;;38.20;16.38;;;11.60;99.90;;;;;;4989361;28;20125;-43
2022/05/17 03:22:29;;;;;;;42.58;16.30;;;11.60;99.90;;;;;;4989189;28;20416;-44
2022/05/17 03:24:55;;;;;;;40.17;18.20;;;11.50;99.90;;;;;;4989180;28;20046;-43
2022/05/17 03:27:21;;;;;;;39.83;17.05;;;11.90;99.90;;;;;;4989332;28;20046;-44
2022/05/17 03:29:47;;;;;;;76.43;21.40;;;11.90;99.90;;;;;;4988855;28;20038;-43
2022/05/17 03:32:12;;;;;;;50.92;18.48;;;11.50;99.90;;;;;;4989037;28;20044;-43
2022/05/17 03:34:38;;;;;;;56.13;19.45;;;11.80;99.90;;;;;;4988992;28;20046;-43
2022/05/17 03:37:04;;;;;;;62.10;20.60;;;11.80;99.90;;;;;;4988137;28;20050;-42
2022/05/17 03:39:30;;;;;;;52.00;18.77;;;11.50;99.90;;;;;;4988857;28;20093;-44
2022/05/17 03:41:55;;;;;;;48.63;19.30;;;11.80;99.90;;;;;;4987288;28;20421;-43
2022/05/17 03:44:21;;;;;;;64.53;19.75;;;11.70;99.90;;;;;;4988555;28;20465;-42
2022/05/17 03:46:47;;;;;;;73.28;21.42;;;12.30;99.90;;;;;;4990031;28;20496;-43
2022/05/17 03:49:13;;;;;;;54.03;19.50;;;11.70;99.90;;;;;;4991680;28;20046;-43
2022/05/17 03:51:38;;;;;;;51.00;18.60;;;11.10;99.90;;;;;;4992212;28;20046;-44
2022/05/17 03:54:04;;;;;;;48.55;17.58;;;11.20;99.90;;;;;;4992300;28;20057;-42
2022/05/17 03:56:30;;;;;;;63.55;21.10;;;11.20;99.90;;;;;;4992040;28;20042;-43
2022/05/17 03:58:56;;;;;;;52.05;19.33;;;11.30;99.90;;;;;;4991643;28;20494;-45
2022/05/17 04:01:21;;;;;;;74.32;20.58;;;11.20;99.90;;;;;;4992185;28;20039;-43
2022/05/17 04:03:47;;;;;;;57.83;19.70;;;11.30;99.90;;;;;;4990218;28;20541;-45
2022/05/17 04:06:13;;;;;;;58.63;19.27;;;11.30;99.90;;;;;;4966936;28;20128;-46
2022/05/17 04:08:39;;;;;;;52.30;20.77;;;11.50;99.90;;;;;;4985768;28;20050;-49
2022/05/17 04:11:05;;;;;;;63.72;21.63;;;11.90;99.90;;;;;;4990080;28;20434;-48
2022/05/17 04:13:33;;;;;;;54.50;21.10;;;12.60;99.90;;;;;;4988789;28;20129;-47
2022/05/17 04:16:00;;;;;;;65.53;21.65;;;13.30;99.90;;;;;;4987601;28;20050;-46
2022/05/17 04:18:27;;;;;;;48.20;20.98;;;13.90;99.90;;;;;;4988706;28;20057;-51
2022/05/17 04:20:58;;;;;;;52.08;21.23;;;14.40;99.90;;;;;;4991525;28;20045;-46
2022/05/17 04:23:23;;;;;;;59.33;20.38;;;14.70;99.90;;;;;;4990523;28;20122;-43
2022/05/17 04:25:49;;;;;;;39.40;16.25;;;14.10;99.90;;;;;;4989837;28;20046;-46
2022/05/17 04:28:17;;;;;;;27.70;13.55;;;13.70;99.90;;;;;;4989731;28;20402;-56
2022/05/17 04:30:44;;;;;;;32.03;13.50;;;14.00;99.90;;;;;;4989891;28;20042;-58
2022/05/17 04:33:10;;;;;;;30.92;12.52;;;13.30;99.90;;;;;;4991596;28;20073;-59
2022/05/17 04:35:36;;;;;;;28.83;12.52;;;13.20;99.90;;;;;;4988938;28;20046;-59
2022/05/17 04:38:02;;;;;;;27.23;11.38;;;13.20;99.90;;;;;;4991111;28;20042;-59
2022/05/17 04:40:28;;;;;;;30.70;11.95;;;13.20;99.90;;;;;;4991840;28;20064;-59
2022/05/17 04:42:57;;;;;;;28.60;12.35;;;13.30;99.90;;;;;;4991460;28;20476;-59
2022/05/17 04:45:23;;;;;;;27.35;12.23;;;13.30;99.90;;;;;;4991578;28;20414;-59
2022/05/17 04:47:49;;;;;;;28.73;12.63;;;13.50;99.90;;;;;;4990927;28;20041;-58
2022/05/17 04:50:17;;;;;;;33.03;12.45;;;13.80;99.90;;;;;;4991838;28;20074;-58
2022/05/17 04:52:43;;;;;;;30.83;12.23;;;14.00;99.90;;;;;;4990289;28;20050;-58
2022/05/17 04:55:10;;;;;;;24.85;12.35;;;14.40;99.90;;;;;;4990865;28;20481;-59
2022/05/17 04:57:37;;;;;;;28.73;11.18;;;14.50;99.90;;;;;;4989731;28;20178;-58
2022/05/17 05:00:05;;;;;;;25.35;12.38;;;15.00;99.90;;;;;;4991019;28;20125;-59
2022/05/17 05:02:30;;;;;;;19.60;11.60;;;14.90;99.90;;;;;;4991363;28;20124;-59
2022/05/17 05:04:56;;;;;;;30.17;13.05;;;15.20;99.90;;;;;;4991179;28;20046;-58
2022/05/17 05:07:22;;;;;;;30.25;12.18;;;15.40;99.90;;;;;;4989761;28;20056;-58
2022/05/17 05:09:48;;;;;;;22.23;12.02;;;15.60;99.90;;;;;;4991293;28;20052;-58
2022/05/17 05:12:14;;;;;;;25.40;11.45;;;16.00;99.90;;;;;;4989229;28;20054;-58
2022/05/17 05:14:40;;;;;;;20.88;10.30;;;16.40;99.90;;;;;;4990538;28;20038;-58
2022/05/17 05:17:06;;;;;;;18.05;9.65;;;16.50;99.90;;;;;;4989473;28;20050;-58
2022/05/17 05:19:31;;;;;;;18.08;10.18;;;16.50;99.90;;;;;;4989216;28;20482;-58
2022/05/17 05:21:58;;;;;;;23.95;9.00;;;16.40;99.90;;;;;;4990720;28;20053;-58
2022/05/17 05:24:23;;;;;;;16.38;9.07;;;17.00;99.90;;;;;;4990470;28;20046;-58
2022/05/17 05:26:49;;;;;;;17.27;7.13;;;17.90;99.90;;;;;;4991017;28;20198;-59
2022/05/17 05:29:15;;;;;;;11.43;6.85;;;18.40;99.90;;;;;;4989104;28;20042;-58
2022/05/17 05:31:41;;;;;;;13.10;7.10;;;18.40;99.90;;;;;;4990973;28;20084;-58
2022/05/17 05:34:06;;;;;;;17.08;6.93;;;18.60;99.90;;;;;;4990559;28;20073;-58
2022/05/17 05:36:32;;;;;;;18.27;6.35;;;18.80;99.90;;;;;;4989620;28;20140;-58
2022/05/17 05:38:58;;;;;;;15.85;6.68;;;19.20;99.90;;;;;;4987698;28;20068;-58
2022/05/17 05:41:23;;;;;;;14.20;6.80;;;19.30;99.90;;;;;;4989139;28;20054;-58
2022/05/17 05:43:49;;;;;;;14.43;6.75;;;19.10;99.90;;;;;;4990026;28;20398;-58
2022/05/17 05:46:15;;;;;;;15.20;5.93;;;19.00;99.90;;;;;;4989811;28;20058;-58
2022/05/17 05:48:41;;;;;;;13.82;6.15;;;18.90;99.90;;;;;;4990524;28;20042;-58
2022/05/17 05:51:07;;;;;;;14.57;6.00;;;18.90;99.90;;;;;;4989635;28;20046;-57
2022/05/17 05:53:33;;;;;;;16.40;5.82;;;20.00;99.90;;;;;;4990272;28;20042;-57
2022/05/17 05:56:01;;;;;;;12.18;5.18;;;20.90;99.90;;;;;;4990323;28;20052;-57
2022/05/17 05:58:32;;;;;;;10.02;4.70;;;21.80;99.90;;;;;;4990227;28;20109;-57
2022/05/17 06:00:58;;;;;;;13.90;4.78;;;23.00;99.90;;;;;;4990170;28;20077;-57
2022/05/17 06:03:24;;;;;;;11.80;4.25;;;23.90;99.90;;;;;;4988594;28;20080;-57
2022/05/17 06:05:50;;;;;;;13.00;4.30;;;25.00;99.90;;;;;;4990063;28;20494;-57
2022/05/17 06:08:16;;;;;;;8.88;4.22;;;25.30;99.90;;;;;;4988110;28;20042;-57
2022/05/17 06:10:43;;;;;;;9.15;3.67;;;26.40;99.90;;;;;;4989324;28;20049;-57
2022/05/17 06:13:16;;;;;;;11.35;4.38;;;26.20;99.90;;;;;;4989666;28;20414;-57
2022/05/17 06:15:43;;;;;;;11.38;3.38;;;25.30;98.00;;;;;;4987601;28;20386;-57
2022/05/17 06:18:09;;;;;;;10.30;3.53;;;24.30;99.90;;;;;;4989577;28;20528;-57
2022/05/17 06:20:36;;;;;;;12.80;3.70;;;23.40;99.90;;;;;;4988338;28;20556;-57
2022/05/17 06:23:03;;;;;;;11.13;4.45;;;22.70;99.90;;;;;;4989539;28;20093;-57
2022/05/17 06:25:29;;;;;;;9.45;4.20;;;22.10;99.90;;;;;;4989556;28;20042;-57
2022/05/17 06:27:56;;;;;;;9.30;3.83;;;22.20;99.90;;;;;;4989713;28;20053;-57
2022/05/17 06:30:22;;;;;;;12.25;3.35;;;23.70;99.90;;;;;;4988311;28;20061;-57
2022/05/17 06:32:48;;;;;;;12.23;4.32;;;24.90;99.90;;;;;;4989294;28;20046;-57
2022/05/17 06:35:13;;;;;;;11.75;3.40;;;25.80;97.60;;;;;;4989132;28;20435;-57
2022/05/17 06:37:40;;;;;;;11.40;3.63;;;26.40;94.40;;;;;;4987126;28;20545;-57
2022/05/17 06:40:07;;;;;;;9.02;3.20;;;26.70;93.10;;;;;;4986465;28;20042;-57
2022/05/17 06:42:33;;;;;;;14.25;3.60;;;27.00;92.20;;;;;;4989258;28;20046;-57
2022/05/17 06:45:00;;;;;;;9.25;3.33;;;27.30;90.70;;;;;;4988778;28;20133;-57
2022/05/17 06:47:26;;;;;;;8.93;3.50;;;27.70;87.20;;;;;;4988886;28;20599;-57
2022/05/17 06:49:52;;;;;;;9.65;3.10;;;27.80;86.20;;;;;;4988857;28;20502;-57
2022/05/17 06:52:18;;;;;;;12.45;3.15;;;28.00;83.20;;;;;;4987682;28;20058;-57
2022/05/17 06:54:44;;;;;;;10.07;3.53;;;27.80;81.20;;;;;;4989770;28;20053;-56
2022/05/17 06:57:12;;;;;;;10.60;2.95;;;27.90;83.30;;;;;;4991488;28;20490;-57
2022/05/17 06:59:40;;;;;;;8.77;2.45;;;28.30;84.50;;;;;;4991995;28;20467;-57
2022/05/17 07:02:07;;;;;;;11.60;2.78;;;28.50;84.90;;;;;;4991932;28;20039;-57
2022/05/17 07:04:34;;;;;;;8.82;3.15;;;29.00;80.30;;;;;;4991644;28;20101;-56
2022/05/17 07:07:00;;;;;;;9.30;3.33;;;29.10;79.60;;;;;;4992921;28;20449;-56
2022/05/17 07:09:27;;;;;;;8.95;2.58;;;29.40;80.90;;;;;;4992839;28;20039;-56
2022/05/17 07:14:55;;;;;;;6.82;2.60;;;30.40;78.10;;;;;;4987805;28;20598;-56
2022/05/17 07:17:22;;;;;;;10.45;2.60;;;30.90;77.00;;;;;;4988342;28;20137;-56
2022/05/17 07:19:48;;;;;;;9.45;3.05;;;31.20;70.70;;;;;;4992748;28;20058;-56
2022/05/17 07:22:14;;;;;;;7.35;2.65;;;31.50;69.70;;;;;;4995129;28;20084;-57
2022/05/17 07:24:45;;;;;;;9.45;3.88;;;32.10;67.80;;;;;;4996774;28;20092;-57
2022/05/17 07:27:12;;;;;;;8.27;1.85;;;32.60;68.60;;;;;;4995304;28;20050;-56
2022/05/17 07:29:37;;;;;;;5.60;2.05;;;32.80;67.10;;;;;;4994287;28;20397;-56
2022/05/17 07:32:03;;;;;;;12.25;3.13;;;32.70;63.30;;;;;;4992354;28;20035;-55
2022/05/17 07:34:29;;;;;;;8.13;2.25;;;32.30;63.70;;;;;;4991940;28;20482;-55
2022/05/17 07:36:55;;;;;;;9.38;2.58;;;32.10;63.60;;;;;;4992681;28;20057;-55
2022/05/17 07:39:21;;;;;;;9.75;2.65;;;33.20;65.00;;;;;;4992481;28;20057;-56
2022/05/17 07:41:48;;;;;;;9.85;2.67;;;32.60;63.10;;;;;;4992220;28;20046;-55
2022/05/17 07:44:13;;;;;;;8.38;2.53;;;32.90;62.10;;;;;;4992053;28;20046;-55
2022/05/17 07:46:39;;;;;;;10.98;2.05;;;32.90;60.20;;;;;;4992717;28;20049;-56
2022/05/17 07:49:06;;;;;;;11.63;2.50;;;32.70;60.70;;;;;;4992340;28;20053;-56
2022/05/17 07:51:32;;;;;;;8.20;2.42;;;32.60;60.30;;;;;;4992224;28;20038;-56
2022/05/17 07:53:58;;;;;;;10.13;2.65;;;32.60;61.10;;;;;;4991162;28;20061;-56
2022/05/17 07:56:24;;;;;;;8.43;1.88;;;33.10;60.70;;;;;;4989761;28;20053;-56
2022/05/17 07:58:49;;;;;;;7.78;2.05;;;33.10;59.70;;;;;;4992205;28;20101;-55
2022/05/17 08:01:15;;;;;;;7.13;2.08;;;33.30;59.60;;;;;;4991634;28;20042;-56
2022/05/17 08:03:41;;;;;;;7.53;2.25;;;33.80;59.70;;;;;;4992281;28;20046;-55
2022/05/17 08:06:06;;;;;;;8.80;1.85;;;34.50;58.80;;;;;;4991951;28;20092;-56
2022/05/17 08:08:32;;;;;;;8.65;1.95;;;34.90;56.80;;;;;;4992180;28;20038;-56
2022/05/17 08:10:58;;;;;;;7.63;2.35;;;35.30;57.00;;;;;;4990507;28;20050;-56
2022/05/17 08:13:25;;;;;;;9.18;2.70;;;36.00;56.20;;;;;;4991712;28;20057;-56
2022/05/17 08:15:51;;;;;;;9.43;2.28;;;36.30;54.50;;;;;;4991393;28;20049;-56
2022/05/17 08:18:18;;;;;;;8.45;2.22;;;36.90;53.90;;;;;;4990281;28;20054;-56
2022/05/17 08:20:44;;;;;;;5.95;2.10;;;37.00;51.90;;;;;;4992067;28;20042;-56
2022/05/17 08:23:10;;;;;;;7.32;1.92;;;36.60;52.40;;;;;;4992118;28;20050;-56
2022/05/17 08:28:21;;;;;;;7.57;2.10;;;36.50;52.40;;;;;;4991760;28;20046;-56
2022/05/17 08:30:47;;;;;;;9.60;2.17;;;36.20;52.00;;;;;;4991426;28;20041;-56
2022/05/17 08:33:16;;;;;;;10.95;2.38;;;36.40;52.90;;;;;;4990937;28;20053;-56
2022/05/17 08:35:42;;;;;;;6.28;2.00;;;36.70;51.10;;;;;;4991198;28;20038;-56
2022/05/17 08:38:09;;;;;;;7.85;1.60;;;36.60;50.80;;;;;;4989517;28;20395;-56
2022/05/17 08:40:58;;;;;;;7.25;1.70;;;37.10;50.70;;;;;;4989965;28;20081;-56
2022/05/17 08:43:24;;;;;;;10.00;2.15;;;37.80;49.60;;;;;;4990994;28;20405;-56
2022/05/17 08:46:05;;;;;;;7.07;1.58;;;37.70;53.00;;;;;;4991088;28;20062;-56
2022/05/17 08:48:43;;;;;;;5.82;1.30;;;38.20;49.70;;;;;;4990760;28;20046;-56
2022/05/17 08:51:13;;;;;;;6.55;1.60;;;38.70;49.10;;;;;;4990955;28;20489;-56
2022/05/17 08:53:39;;;;;;;5.78;1.67;;;39.30;47.20;;;;;;4991086;28;20041;-56
2022/05/17 08:56:06;;;;;;;6.65;1.55;;;39.50;46.70;;;;;;4991345;28;20042;-56
2022/05/17 08:58:33;;;;;;;5.13;1.13;;;40.10;46.90;;;;;;4991402;28;20069;-56
2022/05/17 09:01:07;;;;;;;6.00;1.02;;;40.60;45.20;;;;;;4990928;28;20077;-56
2022/05/17 09:03:49;;;;;;;6.25;1.58;;;41.10;44.90;;;;;;4989994;28;20394;-56
2022/05/17 09:06:36;;;;;;;8.10;1.65;;;41.30;43.00;;;;;;4990624;28;20474;-56
2022/05/17 09:09:21;;;;;;;6.35;1.20;;;41.50;43.70;;;;;;4991011;28;20098;-56
2022/05/17 09:12:02;;;;;;;6.32;1.17;;;42.10;44.40;;;;;;4990753;28;20098;-56
2022/05/17 09:14:34;;;;;;;3.72;0.77;;;42.10;43.10;;;;;;4990557;28;20496;-54
2022/05/17 09:17:00;;;;;;;7.20;1.13;;;41.70;41.60;;;;;;4990638;28;20042;-54
2022/05/17 09:19:26;;;;;;;5.18;1.02;;;41.30;41.50;;;;;;4990518;28;20135;-54
2022/05/17 09:21:58;;;;;;;5.55;1.17;;;41.10;42.10;;;;;;4990402;28;20050;-54
2022/05/17 09:24:28;;;;;;;4.15;0.60;;;41.10;42.60;;;;;;4990616;28;20088;-55
2022/05/17 09:27:02;;;;;;;9.35;1.65;;;40.90;42.50;;;;;;4990582;28;20086;-54
2022/05/17 09:29:36;;;;;;;4.72;0.95;;;40.90;42.20;;;;;;4990537;28;20046;-54
2022/05/17 09:32:06;;;;;;;5.88;1.27;;;40.80;42.20;;;;;;4990363;28;20073;-54
2022/05/17 09:34:44;;;;;;;4.95;0.80;;;40.50;42.30;;;;;;4989716;28;20761;-54
2022/05/17 09:37:16;;;;;;;4.95;0.95;;;40.80;43.10;;;;;;4990129;28;20057;-54
2022/05/17 09:39:48;;;;;;;5.18;0.88;;;41.30;42.80;;;;;;4990315;28;20053;-55
2022/05/17 09:42:50;;;;;;;4.90;1.00;;;41.80;41.40;;;;;;4989420;28;20429;-54
2022/05/17 09:45:19;;;;;;;3.50;0.57;;;41.90;41.90;;;;;;4988832;28;20061;-55
2022/05/17 09:47:58;;;;;;;4.95;0.73;;;42.00;41.10;;;;;;4988852;28;20445;-55
2022/05/17 09:53:17;;;;;;;4.85;0.90;;;43.00;40.30;;;;;;4989771;28;20116;-54
2022/05/17 09:55:56;;;;;;;5.53;0.90;;;43.50;39.20;;;;;;4989935;28;20591;-54
2022/05/17 09:58:32;;;;;;;4.20;0.85;;;43.50;38.60;;;;;;4988934;28;20050;-55
2022/05/17 10:01:00;;;;;;;10.25;1.10;;;42.80;38.90;;;;;;4989564;28;20393;-55
2022/05/17 10:03:36;;;;;;;7.07;0.75;;;42.30;38.70;;;;;;4988746;28;20050;-55
2022/05/17 10:06:27;;;;;;;4.15;0.80;;;42.30;39.50;;;;;;4989020;28;20038;-55
2022/05/17 10:09:12;;;;;;;4.28;0.77;;;42.10;39.20;;;;;;4989519;28;20038;-55
2022/05/17 10:11:42;;;;;;;7.13;0.80;;;41.70;40.20;;;;;;4989192;28;20129;-54
2022/05/17 10:14:25;;;;;;;5.95;1.00;;;41.50;39.80;;;;;;4989959;28;20068;-55
2022/05/17 10:17:08;;;;;;;6.75;0.90;;;41.40;38.00;;;;;;4989712;28;20072;-54
2022/05/17 10:20:04;;;;;;;3.83;0.93;;;41.50;39.40;;;;;;4988943;28;20527;-55
2022/05/17 10:22:52;;;;;;;6.40;0.68;;;41.50;40.60;;;;;;4987760;28;20490;-55
2022/05/17 10:25:36;;;;;;;2.33;0.40;;;41.40;39.40;;;;;;4989647;28;20517;-55
2022/05/17 10:28:50;;;;;;;5.22;0.55;;;41.40;38.70;;;;;;4989711;28;20042;-55
2022/05/17 10:31:28;;;;;;;4.28;0.63;;;41.40;38.60;;;;;;4986331;28;20057;-54
2022/05/17 10:34:12;;;;;;;3.83;0.98;;;41.30;38.60;;;;;;4989386;28;20054;-55
2022/05/17 10:36:45;;;;;;;8.02;0.98;;;41.10;37.80;;;;;;4988966;28;20602;-54
2022/05/17 10:39:14;;;;;;;5.07;0.57;;;41.20;37.70;;;;;;4988771;28;20049;-54
2022/05/17 10:41:40;;;;;;;3.50;0.80;;;41.30;36.80;;;;;;4988849;28;20149;-54
2022/05/17 10:44:06;;;;;;;5.55;0.85;;;40.20;36.00;;;;;;4988764;28;20096;-54
2022/05/17 10:46:38;;;;;;;5.70;0.52;;;40.00;35.70;;;;;;4988750;28;20050;-54
2022/05/17 10:49:29;;;;;;;4.93;0.55;;;38.60;37.70;;;;;;4989469;28;20081;-54
2022/05/17 10:51:58;;;;;;;4.00;0.52;;;37.00;39.80;;;;;;4989426;28;20046;-54
2022/05/17 10:54:52;;;;;;;3.63;0.30;;;35.60;40.90;;;;;;4989115;28;20053;-54
2022/05/17 10:57:40;;;;;;;5.72;0.50;;;34.90;42.10;;;;;;4988536;28;20050;-54
2022/05/17 11:00:19;;;;;;;6.38;0.75;;;34.40;42.50;;;;;;4988363;28;20141;-54
2022/05/17 11:03:16;;;;;;;3.97;0.50;;;33.90;43.70;;;;;;4989027;28;20069;-54
2022/05/17 11:06:12;;;;;;;4.45;0.70;;;33.20;44.60;;;;;;4988587;28;20074;-54
2022/05/17 11:08:58;;;;;;;4.18;0.80;;;32.50;45.70;;;;;;4988987;28;20092;-54
2022/05/17 11:12:05;;;;;;;4.13;0.90;;;;;;;;;;4989085;28;20116;-54
2022/05/17 11:14:50;;;;;;;5.68;0.63;;;31.70;71.30;;;;;;4949958;28;20094;-54
2022/05/17 11:17:36;;;;;;;7.35;0.50;;;30.20;47.40;;;;;;4966541;28;20470;-54
2022/05/17 11:20:23;;;;;;;4.75;0.50;;;30.20;48.50;;;;;;4977398;28;20680;-54
2022/05/17 11:22:52;;;;;;;5.95;0.90;;;29.60;49.80;;;;;;4988161;28;20057;-54
2022/05/17 11:25:43;;;;;;;4.10;0.90;;;29.10;49.80;;;;;;4989274;28;20053;-54
2022/05/17 11:28:12;;;;;;;4.90;1.08;;;28.50;50.60;;;;;;4988847;28;20482;-54
2022/05/17 11:30:38;;;;;;;6.22;0.50;;;28.00;48.70;;;;;;4988648;28;20133;-54
2022/05/17 11:33:26;;;;;;;2.33;0.30;;;27.70;48.80;;;;;;4987219;28;20056;-54
2022/05/17 11:36:01;;;;;;;6.30;0.85;;;27.40;48.80;;;;;;4987858;28;20073;-54
2022/05/17 11:38:36;;;;;;;6.35;0.63;;;27.20;50.10;;;;;;4986699;28;20058;-54
2022/05/17 11:41:24;;;;;;;4.20;0.73;;;27.10;52.10;;;;;;4989331;28;20120;-54
2022/05/17 11:43:54;;;;;;;6.50;0.90;;;26.90;53.50;;;;;;4991993;28;20038;-54
2022/05/17 11:46:28;;;;;;;9.15;0.60;;;26.80;54.20;;;;;;4991628;28;20058;-56
2022/05/17 11:48:59;;;;;;;5.07;0.55;;;26.80;54.50;;;;;;4991949;28;20558;-57
2022/05/17 11:51:31;;;;;;;6.28;0.45;;;27.00;53.40;;;;;;4992424;28;20044;-56
2022/05/17 11:53:58;;;;;;;4.35;0.45;;;27.00;52.80;;;;;;4992508;28;20046;-56
2022/05/17 11:56:28;;;;;;;6.40;0.60;;;27.00;51.30;;;;;;4992628;28;20042;-56
2022/05/17 11:58:57;;;;;;;3.70;0.30;;;27.10;50.40;;;;;;4992778;28;20046;-56
2022/05/17 12:01:29;;;;;;;3.95;0.32;;;27.10;51.00;;;;;;4992569;28;20121;-47
2022/05/17 12:04:06;;;;;;;3.80;0.50;;;27.20;52.00;;;;;;4982420;28;20130;-43
2022/05/17 12:06:36;;;;;;;6.00;0.60;;;27.30;52.60;;;;;;4984153;28;20039;-47
2022/05/17 12:09:20;;;;;;;4.00;0.70;;;27.30;52.30;;;;;;4988732;28;20054;-45
2022/05/17 12:12:27;;;;;;;5.95;0.70;;;27.30;51.80;;;;;;4989617;28;20054;-51
2022/05/17 12:15:30;;;;;;;4.88;0.52;;;27.40;53.60;;;;;;4987227;28;20085;-49
2022/05/17 12:17:56;;;;;;;4.97;0.32;;;27.50;53.40;;;;;;4990009;28;20042;-44
2022/05/17 12:20:45;;;;;;;6.57;1.40;;;27.50;52.10;;;;;;4990241;28;20049;-49
2022/05/17 12:23:17;;;;;;;5.43;0.77;;;27.50;52.40;;;;;;4990308;28;20580;-42
2022/05/17 12:25:54;;;;;;;5.60;0.50;;;27.60;52.80;;;;;;4990325;28;20382;-45
2022/05/17 12:28:23;;;;;;;2.53;0.52;;;27.60;53.50;;;;;;4990363;28;20125;-44
2022/05/17 12:30:59;;;;;;;5.82;0.57;;;27.70;53.70;;;;;;4990566;28;20039;-44
2022/05/17 12:33:33;;;;;;;5.38;0.50;;;27.70;52.70;;;;;;4989114;28;20047;-49
2022/05/17 12:36:13;;;;;;;3.60;0.45;;;27.80;51.00;;;;;;4990390;28;20045;-43
2022/05/17 12:44:20;;;;;;;7.82;0.80;;;27.60;53.40;;;;;;4989660;28;20057;-41
2022/05/17 12:46:49;;;;;;;6.97;0.60;;;27.70;53.20;;;;;;4989614;28;20474;-43
2022/05/17 12:49:22;;;;;;;7.65;1.10;;;27.70;52.70;;;;;;4990509;28;20500;-48
2022/05/17 12:51:53;;;;;;;3.10;0.63;;;27.70;53.50;;;;;;4990222;28;20153;-53
2022/05/17 12:54:23;;;;;;;4.25;0.68;;;27.60;54.40;;;;;;4990287;28;20093;-46
2022/05/17 12:56:49;;;;;;;3.03;0.43;;;27.70;53.80;;;;;;4989980;28;20069;-47
2022/05/17 12:59:30;;;;;;;3.63;0.55;;;27.80;53.80;;;;;;4989793;28;20046;-49
2022/05/17 13:01:59;;;;;;;3.33;0.60;;;27.90;52.60;;;;;;4990028;28;20042;-52
2022/05/17 13:04:34;;;;;;;5.53;0.88;;;28.00;51.50;;;;;;4989627;28;20046;-52
2022/05/17 13:07:13;;;;;;;6.80;0.80;;;28.00;53.00;;;;;;4990344;28;20125;-50
2022/05/17 13:09:55;;;;;;;6.30;1.15;;;28.10;51.90;;;;;;4990031;28;20034;-52